»·PEaware :: SKY777 KABQ-KSKX

SKY777 :: KABQ-KSKX

FLIGHT INFORMATION

Flight Status: Arrived
Operator:
Skymark Airlines
More flights by this operator :: More flights under this callsign
Pilot: Friedhelm S. (2894)
Aircraft: CESSNA 172 SKYHAWK
(C172)
More flights by this aircraft type
Origin: KABQ Albuquerque Intl Sunport
United States
Destination: KSKX Taos Regl
United States
More flights between these airports :: More routes between these airports
Route: ABQ V263 SAF V83 TAS
File this flight plan on PilotEdge
Remarks: Sky scenario #2
Altitude:
(Current/Filed)
11,000ft
Speed:
(Current/Filed)
100kts
Departed: 11-Oct-18 07:29 AM
Arrived: 11-Oct-18 08:48 AM
Distance/Time
Traveled:
97nm/1:19
Distance/Time
To Go:
Arrived

Flight Plot

Page will automatically refresh every two minutes.

Flight plan parsing failed; only flown route is shown


Map Options




Map Legend


Flown Route
Filed Route
Departure Airport
Arrival Airport
Navaid (VOR, NDB)
Fix

Horizontal Profiles

Position Reports

Time Latitude Longitude Heading Altitude Ground
Speed
11-Oct-18 07:12 35.036603 -106.617447 137 5309ft 0kts
11-Oct-18 07:13 35.036603 -106.617447 137 5309ft 0kts
11-Oct-18 07:14 35.036603 -106.617447 137 5309ft 0kts
11-Oct-18 07:15 35.036603 -106.617447 137 5309ft 0kts
11-Oct-18 07:16 35.036603 -106.617447 137 5309ft 0kts
11-Oct-18 07:17 35.036603 -106.617447 137 5309ft 0kts
11-Oct-18 07:18 35.036603 -106.617447 137 5309ft 0kts
11-Oct-18 07:19 35.036603 -106.617447 137 5309ft 0kts
11-Oct-18 07:20 35.036603 -106.617447 137 5309ft 0kts
11-Oct-18 07:21 35.036603 -106.617447 137 5309ft 0kts
11-Oct-18 07:22 35.036603 -106.617447 137 5309ft 0kts
11-Oct-18 07:23 35.036383 -106.617270 162 5309ft 10kts
11-Oct-18 07:24 35.034292 -106.618201 224 5309ft 8kts
11-Oct-18 07:25 35.032483 -106.620386 223 5308ft 11kts
11-Oct-18 07:26 35.029694 -106.623756 222 5306ft 15kts
11-Oct-18 07:27 35.026447 -106.627660 223 5298ft 18kts
11-Oct-18 07:28 35.023124 -106.631340 166 5285ft 5kts
11-Oct-18 07:29 35.022911 -106.631184 137 5287ft 0kts
11-Oct-18 07:30 35.022911 -106.631184 137 5287ft 0kts
11-Oct-18 07:31 35.023483 -106.629066 47 5294ft 47kts
11-Oct-18 07:32 35.041329 -106.613685 37 5902ft 87kts
11-Oct-18 07:33 35.064006 -106.622076 326 6613ft 98kts
11-Oct-18 07:34 35.084680 -106.644569 312 7316ft 99kts
11-Oct-18 07:35 35.105301 -106.667046 318 7988ft 101kts
11-Oct-18 07:36 35.127176 -106.689120 315 8610ft 103kts
11-Oct-18 07:37 35.149446 -106.711435 317 9200ft 104kts
11-Oct-18 07:38 35.171839 -106.731775 315 9854ft 92kts
11-Oct-18 07:39 35.192919 -106.749095 319 10383ft 92kts
11-Oct-18 07:40 35.219882 -106.742752 11 10916ft 102kts
11-Oct-18 07:41 35.247551 -106.732565 11 10968ft 112kts
11-Oct-18 07:42 35.278205 -106.720946 15 10952ft 120kts
11-Oct-18 07:43 35.310723 -106.711496 8 11035ft 119kts
11-Oct-18 07:44 35.343429 -106.701383 15 11088ft 124kts
11-Oct-18 07:45 35.377607 -106.688540 15 11018ft 129kts
11-Oct-18 07:46 35.411621 -106.675266 15 10956ft 133kts
11-Oct-18 07:47 35.446925 -106.664553 11 10935ft 129kts
11-Oct-18 07:48 35.481766 -106.654739 10 10929ft 128kts
11-Oct-18 07:49 35.513132 -106.638661 77 10926ft 121kts
11-Oct-18 07:50 35.522357 -106.599400 75 10963ft 121kts
11-Oct-18 07:51 35.531351 -106.559686 85 10966ft 121kts
11-Oct-18 07:52 35.534174 -106.518865 94 10960ft 119kts
11-Oct-18 07:53 35.532448 -106.479029 116 10979ft 112kts
11-Oct-18 07:54 35.534410 -106.439707 84 10980ft 122kts
11-Oct-18 07:55 35.538085 -106.398348 93 10968ft 119kts
11-Oct-18 07:56 35.538412 -106.357872 100 10981ft 118kts
11-Oct-18 07:57 35.537663 -106.318034 94 10951ft 122kts
11-Oct-18 07:58 35.539284 -106.276689 95 10944ft 120kts
11-Oct-18 07:59 35.539310 -106.236236 98 10980ft 117kts
11-Oct-18 08:00 35.538535 -106.195917 99 11001ft 117kts
11-Oct-18 08:01 35.538055 -106.155263 96 10990ft 119kts
11-Oct-18 08:02 35.540861 -106.114169 95 10974ft 120kts
11-Oct-18 08:03 35.541247 -106.073347 95 10980ft 120kts
11-Oct-18 08:04 35.569978 -106.057102 358 10975ft 126kts
11-Oct-18 08:05 35.604713 -106.054957 357 10986ft 128kts
11-Oct-18 08:06 35.639950 -106.052004 358 10970ft 128kts
11-Oct-18 08:07 35.675308 -106.049385 359 10980ft 127kts
11-Oct-18 08:08 35.710505 -106.046279 0 10988ft 126kts
11-Oct-18 08:09 35.745308 -106.043523 359 11020ft 125kts
11-Oct-18 08:10 35.780411 -106.039613 0 11017ft 127kts
11-Oct-18 08:11 35.814898 -106.036661 5 11037ft 124kts
11-Oct-18 08:12 35.848714 -106.033491 3 10978ft 121kts
11-Oct-18 08:13 35.881160 -106.027436 12 10986ft 117kts
11-Oct-18 08:14 35.912570 -106.019265 11 11024ft 115kts
11-Oct-18 08:15 35.944379 -106.012778 11 11046ft 114kts
11-Oct-18 08:16 35.975958 -106.004783 12 11006ft 118kts
11-Oct-18 08:17 36.007988 -105.998878 5 11009ft 116kts
11-Oct-18 08:18 36.039993 -105.994673 4 11011ft 116kts
11-Oct-18 08:19 36.071992 -105.991218 3 11025ft 115kts
11-Oct-18 08:20 36.102508 -105.990106 3 11265ft 102kts
11-Oct-18 08:21 36.131696 -105.985831 4 11565ft 115kts
11-Oct-18 08:22 36.163848 -105.979970 7 11965ft 119kts
11-Oct-18 08:23 36.198302 -105.970739 4 11936ft 127kts
11-Oct-18 08:24 36.232819 -105.964461 3 11866ft 124kts
11-Oct-18 08:25 36.266439 -105.956780 6 11929ft 122kts
11-Oct-18 08:26 36.299935 -105.948585 5 11984ft 122kts
11-Oct-18 08:27 36.333440 -105.941055 6 12035ft 122kts
11-Oct-18 08:28 36.367386 -105.934542 0 12031ft 125kts
11-Oct-18 08:29 36.402389 -105.932100 355 12001ft 125kts
11-Oct-18 08:30 36.436688 -105.930656 356 12028ft 124kts
11-Oct-18 08:31 36.471319 -105.925927 5 12002ft 128kts
11-Oct-18 08:32 36.506238 -105.920138 359 11972ft 128kts
11-Oct-18 08:33 36.541663 -105.917758 355 11959ft 124kts
11-Oct-18 08:34 36.576033 -105.913563 5 11985ft 125kts
11-Oct-18 08:35 36.609849 -105.908692 321 12008ft 114kts
11-Oct-18 08:36 36.629905 -105.937576 298 11959ft 111kts
11-Oct-18 08:37 36.618448 -105.938542 91 11986ft 120kts
11-Oct-18 08:38 36.606952 -105.903152 125 11958ft 115kts
11-Oct-18 08:39 36.590729 -105.871280 137 11565ft 106kts
11-Oct-18 08:40 36.573416 -105.841329 134 10862ft 106kts
11-Oct-18 08:41 36.554829 -105.813448 141 10080ft 101kts
11-Oct-18 08:42 36.534885 -105.790281 136 9367ft 100kts
11-Oct-18 08:43 36.518827 -105.763076 135 8883ft 96kts
11-Oct-18 08:44 36.500144 -105.740608 145 8665ft 92kts
11-Oct-18 08:45 36.487960 -105.714625 72 8567ft 97kts
11-Oct-18 08:46 36.498374 -105.710711 181 8357ft 70kts
11-Oct-18 08:47 36.480734 -105.698108 204 8169ft 70kts
11-Oct-18 08:48 36.466723 -105.711627 184 7918ft 61kts
11-Oct-18 08:49 36.454007 -105.695350 130 7469ft 66kts
11-Oct-18 08:50 36.456418 -105.675706 58 7062ft 21kts
11-Oct-18 08:51 36.458519 -105.673339 56 7067ft 8kts
11-Oct-18 08:52 36.460044 -105.671625 38 7070ft 8kts
11-Oct-18 08:53 36.460463 -105.670715 152 7071ft 0kts
11-Oct-18 08:54 36.460463 -105.670715 152 7071ft 0kts
11-Oct-18 08:55 36.460463 -105.670715 152 7071ft 0kts
11-Oct-18 08:56 36.460463 -105.670715 152 7071ft 0kts
11-Oct-18 08:57 36.460463 -105.670715 152 7071ft 0kts
11-Oct-18 08:58 36.460463 -105.670715 152 7071ft 0kts
11-Oct-18 08:59 36.460463 -105.670715 152 7071ft 0kts
11-Oct-18 09:00 36.460463 -105.670715 152 7071ft 0kts
11-Oct-18 09:01 36.460463 -105.670715 152 7071ft 0kts
11-Oct-18 09:02 36.460463 -105.670715 152 7071ft 0kts
11-Oct-18 09:03 36.460463 -105.670715 152 7071ft 0kts
11-Oct-18 09:04 36.460463 -105.670715 152 7071ft 0kts

Navigation Log

Ident Type
Flight plan parsing failed, navigation log unavailable